createdAt,value
2023-06-14T00:01:01.751Z,105462.56
2023-06-14T00:03:28.334Z,105417.66
2023-06-14T00:05:54.840Z,105455.19
2023-06-14T00:08:21.597Z,105292.13
2023-06-14T00:10:48.409Z,105256.13
2023-06-14T00:13:15.263Z,105233.09
2023-06-14T00:15:41.686Z,105162.59
2023-06-14T00:18:08.553Z,105238.53
2023-06-14T00:20:35.051Z,105150.63
2023-06-14T00:23:02.628Z,105269.72
2023-06-14T00:25:30.300Z,105157.09
2023-06-14T00:27:58.563Z,105160.09
2023-06-14T00:30:26.045Z,105099.22
2023-06-14T00:32:53.040Z,105032.25
2023-06-14T00:35:19.980Z,105091.91
2023-06-14T00:37:46.898Z,104921.03
2023-06-14T00:40:13.966Z,105158.25
2023-06-14T00:42:40.750Z,104905.09
2023-06-14T00:45:07.931Z,104833.88
2023-06-14T00:47:35.793Z,104605.53
2023-06-14T00:50:02.908Z,104690.66
2023-06-14T00:52:29.716Z,104652.91
2023-06-14T00:54:56.251Z,104798.13
2023-06-14T00:57:22.989Z,104570.84
2023-06-14T00:59:50.400Z,104699.72
2023-06-14T01:02:17.757Z,104825.78
2023-06-14T01:04:47.717Z,104729.34
2023-06-14T01:07:30.247Z,104738.97
2023-06-14T01:10:08.702Z,104897.78
2023-06-14T01:13:02.874Z,104749.56
2023-06-14T01:15:32.150Z,104862.22
2023-06-14T01:17:58.945Z,104937.38
2023-06-14T01:20:30.213Z,104885.03
2023-06-14T01:22:56.803Z,104926.06
2023-06-14T01:25:23.905Z,104662.84
2023-06-14T01:27:54.180Z,104774.72
2023-06-14T01:30:21.881Z,104712.00
2023-06-14T01:32:50.815Z,104770.09
2023-06-14T01:35:17.718Z,104498.22
2023-06-14T01:37:47.771Z,104657.88
2023-06-14T01:40:16.718Z,104691.13
2023-06-14T01:42:45.205Z,104807.50
2023-06-14T01:45:12.671Z,104614.84
2023-06-14T01:47:39.994Z,104542.56
2023-06-14T01:50:07.208Z,104631.88
2023-06-14T01:52:33.735Z,104593.16
2023-06-14T01:55:00.275Z,104574.44
2023-06-14T01:57:26.764Z,104447.44
2023-06-14T01:59:53.573Z,104557.56
2023-06-14T02:02:20.619Z,104515.22
2023-06-14T02:04:47.135Z,104441.50
2023-06-14T02:07:13.726Z,104293.72
2023-06-14T02:09:41.421Z,104173.44
2023-06-14T02:12:08.910Z,104314.88
2023-06-14T02:14:35.503Z,104326.59
2023-06-14T02:17:02.041Z,104282.16
2023-06-14T02:19:28.689Z,104269.09
2023-06-14T02:21:55.216Z,104262.34
2023-06-14T02:24:21.787Z,104163.22
2023-06-14T02:26:48.409Z,104183.19
2023-06-14T02:29:15.063Z,104108.03
2023-06-14T02:31:42.260Z,104141.53
2023-06-14T02:34:09.114Z,104036.22
2023-06-14T02:36:36.512Z,104066.59
2023-06-14T02:39:03.002Z,103884.94
2023-06-14T02:41:29.491Z,104041.16
2023-06-14T02:43:56.027Z,104092.00
2023-06-14T02:46:22.496Z,103766.16
2023-06-14T02:48:49.629Z,103934.56
2023-06-14T02:51:16.228Z,104006.50
2023-06-14T02:53:42.763Z,103863.13
2023-06-14T02:56:09.379Z,104035.22
2023-06-14T02:58:37.972Z,103914.13
2023-06-14T03:01:06.285Z,103896.59
2023-06-14T03:03:32.883Z,103772.94
2023-06-14T03:05:59.444Z,103775.56
2023-06-14T03:08:26.030Z,103688.00
2023-06-14T03:10:52.643Z,103838.53
2023-06-14T03:13:19.128Z,103883.41
2023-06-14T03:15:45.581Z,104001.41
2023-06-14T03:18:12.339Z,103733.75
2023-06-14T03:20:39.707Z,103738.28
2023-06-14T03:23:07.879Z,103628.69
2023-06-14T03:25:34.393Z,103793.53
2023-06-14T03:28:00.945Z,103602.16
2023-06-14T03:30:27.483Z,103792.50
2023-06-14T03:32:54.135Z,103866.09
2023-06-14T03:35:20.647Z,103688.19
2023-06-14T03:37:47.832Z,103645.41
2023-06-14T03:40:16.752Z,103651.91
2023-06-14T03:42:43.582Z,103772.09
2023-06-14T03:45:10.419Z,103631.91
2023-06-14T03:47:37.071Z,103642.53
2023-06-14T03:50:04.827Z,103497.56
2023-06-14T03:52:31.374Z,103587.91
2023-06-14T03:55:55.512Z,103642.41
2023-06-14T03:57:44.630Z,103589.22
2023-06-14T04:00:12.037Z,103840.69
2023-06-14T04:02:38.866Z,103796.88
2023-06-14T04:05:05.698Z,103879.81
2023-06-14T04:07:32.281Z,103725.78
2023-06-14T04:09:58.873Z,103479.81
2023-06-14T04:12:25.405Z,103672.41
2023-06-14T04:14:52.047Z,103722.34
2023-06-14T04:17:18.748Z,103689.69
2023-06-14T04:19:45.619Z,103605.34
2023-06-14T04:22:12.328Z,103656.50
2023-06-14T04:24:39.117Z,103861.00
2023-06-14T04:27:06.029Z,103832.50
2023-06-14T04:29:32.671Z,103937.03
2023-06-14T04:31:59.335Z,104062.34
2023-06-14T04:34:29.341Z,104026.34
2023-06-14T04:36:56.188Z,104045.84
2023-06-14T04:39:24.023Z,104019.94
2023-06-14T04:41:50.861Z,103951.25
2023-06-14T04:44:17.356Z,104156.63
2023-06-14T04:46:43.798Z,104143.91
2023-06-14T04:49:10.253Z,104098.00
2023-06-14T04:51:36.742Z,104096.00
2023-06-14T04:54:03.559Z,104143.25
2023-06-14T04:56:30.130Z,104268.94
2023-06-14T04:58:56.597Z,104139.66
2023-06-14T05:01:23.572Z,104177.78
2023-06-14T05:03:50.565Z,104335.88
2023-06-14T05:06:17.105Z,104397.84
2023-06-14T05:08:43.926Z,104373.56
2023-06-14T05:11:10.593Z,104472.22
2023-06-14T05:13:37.143Z,104417.03
2023-06-14T05:16:03.830Z,104395.38
2023-06-14T05:18:30.396Z,104410.06
2023-06-14T05:20:57.089Z,104491.25
2023-06-14T05:23:23.804Z,104667.22
2023-06-14T05:25:50.278Z,104660.97
2023-06-14T05:28:16.815Z,104708.59
2023-06-14T05:30:43.429Z,104547.31
2023-06-14T05:33:10.185Z,104405.44
2023-06-14T05:35:36.868Z,104664.28
2023-06-14T05:38:03.446Z,104849.28
2023-06-14T05:40:30.305Z,104884.94
2023-06-14T05:42:56.955Z,104941.75
2023-06-14T05:45:23.536Z,104955.09
2023-06-14T05:47:50.107Z,105037.91
2023-06-14T05:50:17.046Z,105130.66
2023-06-14T05:52:43.643Z,105080.97
2023-06-14T05:55:10.355Z,104966.97
2023-06-14T05:57:36.890Z,105167.16
2023-06-14T06:00:03.883Z,105103.97
2023-06-14T06:02:30.556Z,105261.19
2023-06-14T06:04:57.176Z,105258.66
2023-06-14T06:07:23.810Z,105326.38
2023-06-14T06:09:50.259Z,105541.38
2023-06-14T06:12:16.802Z,105781.53
2023-06-14T06:14:43.421Z,105915.91
2023-06-14T06:17:10.151Z,106421.41
2023-06-14T06:19:36.829Z,106593.50
2023-06-14T06:22:03.746Z,106385.78
2023-06-14T06:24:30.370Z,106739.09
2023-06-14T06:26:56.989Z,106816.03
2023-06-14T06:29:23.470Z,106968.75
2023-06-14T06:31:50.294Z,107318.00
2023-06-14T06:34:16.987Z,107084.09
2023-06-14T06:36:43.558Z,107485.66
2023-06-14T06:39:10.304Z,107457.06
2023-06-14T06:41:40.082Z,107636.94
2023-06-14T06:44:09.716Z,107519.13
2023-06-14T06:46:36.503Z,108101.16
2023-06-14T06:49:03.073Z,107400.88
2023-06-14T06:51:29.572Z,107611.34
2023-06-14T06:53:56.294Z,107850.25
2023-06-14T06:56:22.907Z,108019.84
2023-06-14T06:58:52.958Z,108147.44
2023-06-14T07:01:19.695Z,108091.38
2023-06-14T07:03:46.822Z,108485.56
2023-06-14T07:06:13.631Z,108512.47
2023-06-14T07:08:40.330Z,108492.69
2023-06-14T07:11:06.916Z,108301.19
2023-06-14T07:13:33.535Z,108078.28
2023-06-14T07:16:01.114Z,108740.50
2023-06-14T07:18:28.279Z,108868.47
2023-06-14T07:20:55.327Z,108792.75
2023-06-14T07:23:21.973Z,108901.69
2023-06-14T07:25:48.498Z,109364.00
2023-06-14T07:28:15.461Z,109077.66
2023-06-14T07:30:43.383Z,107786.88
2023-06-14T07:33:10.086Z,107800.72
2023-06-14T07:35:36.624Z,107572.19
2023-06-14T07:38:03.245Z,107890.81
2023-06-14T07:40:29.690Z,107843.09
2023-06-14T07:42:56.352Z,108861.75
2023-06-14T07:45:22.910Z,109255.88
2023-06-14T07:47:49.470Z,109232.97
2023-06-14T07:50:16.026Z,108657.03
2023-06-14T07:52:42.763Z,109574.97
2023-06-14T07:55:09.688Z,109599.22
2023-06-14T07:57:36.338Z,109195.75
2023-06-14T08:00:03.430Z,109114.88
2023-06-14T08:02:30.025Z,108354.16
2023-06-14T08:04:56.594Z,108156.09
2023-06-14T08:07:23.100Z,108826.25
2023-06-14T08:09:49.744Z,108712.16
2023-06-14T08:12:16.323Z,107885.78
2023-06-14T08:14:43.792Z,108781.63
2023-06-14T08:17:10.485Z,109615.88
2023-06-14T08:19:37.045Z,109017.41
2023-06-14T08:22:03.658Z,109034.59
2023-06-14T08:24:30.403Z,109685.38
2023-06-14T08:26:56.992Z,110032.50
2023-06-14T08:29:23.734Z,109940.22
2023-06-14T08:31:50.254Z,109192.13
2023-06-14T08:34:16.886Z,110746.44
2023-06-14T08:36:43.432Z,110107.53
2023-06-14T08:39:10.351Z,109168.06
2023-06-14T08:41:37.074Z,110131.50
2023-06-14T08:44:04.127Z,110019.22
2023-06-14T08:46:33.955Z,110082.66
2023-06-14T08:49:02.501Z,109792.00
2023-06-14T08:51:31.870Z,109511.84
2023-06-14T08:53:58.615Z,109610.31
2023-06-14T08:56:29.676Z,109406.97
2023-06-14T08:58:57.782Z,110137.25
2023-06-14T09:01:24.995Z,110072.41
2023-06-14T09:03:52.544Z,109849.94
2023-06-14T09:06:20.024Z,109800.25
2023-06-14T09:08:47.794Z,109699.66
2023-06-14T09:11:15.744Z,110290.84
2023-06-14T09:13:43.343Z,110548.50
2023-06-14T09:16:10.611Z,110967.47
2023-06-14T09:18:42.421Z,111313.91
2023-06-14T09:21:09.641Z,111077.22
2023-06-14T09:23:43.860Z,110084.94
2023-06-14T09:26:15.056Z,111133.53
2023-06-14T09:28:46.755Z,111310.44
2023-06-14T09:31:15.080Z,111472.75
2023-06-14T09:33:54.448Z,110410.22
2023-06-14T09:36:25.366Z,110815.47
2023-06-14T09:38:58.706Z,111033.06
2023-06-14T09:41:35.789Z,109779.75
2023-06-14T09:44:08.372Z,110446.34
2023-06-14T09:46:37.857Z,110257.47
2023-06-14T09:49:05.950Z,110343.53
2023-06-14T09:51:32.886Z,110910.50
2023-06-14T09:54:04.018Z,110542.78
2023-06-14T09:56:42.568Z,110523.31
2023-06-14T09:59:11.039Z,111193.63
2023-06-14T10:01:45.926Z,110360.16
2023-06-14T10:04:16.044Z,111114.97
2023-06-14T10:06:46.698Z,111531.63
2023-06-14T10:09:13.822Z,110509.94
2023-06-14T10:11:40.506Z,110626.47
2023-06-14T10:14:07.710Z,111521.22
2023-06-14T10:16:40.346Z,110403.34
2023-06-14T10:19:21.402Z,110112.00
2023-06-14T10:22:07.099Z,110238.09
2023-06-14T10:24:39.384Z,111162.00
2023-06-14T10:27:08.176Z,110228.25
2023-06-14T10:29:34.781Z,109928.25
2023-06-14T10:32:01.915Z,110467.78
2023-06-14T10:34:30.792Z,109514.91
2023-06-14T10:37:08.294Z,109946.56
2023-06-14T10:39:41.808Z,109038.56
2023-06-14T10:42:08.838Z,109515.78
2023-06-14T10:44:39.586Z,109258.94
2023-06-14T10:47:21.317Z,109330.72
2023-06-14T10:49:51.864Z,109300.66
2023-06-14T10:52:22.470Z,109169.94
2023-06-14T10:55:05.780Z,109802.84
2023-06-14T10:57:41.711Z,108915.81
2023-06-14T11:00:16.022Z,108834.63
2023-06-14T11:03:20.248Z,109082.66
2023-06-14T11:05:49.571Z,108888.22
2023-06-14T11:08:28.308Z,109336.94
2023-06-14T11:11:00.835Z,109269.47
2023-06-14T11:13:28.828Z,109601.78
2023-06-14T11:15:56.461Z,109276.75
2023-06-14T11:18:23.264Z,109231.69
2023-06-14T11:20:49.804Z,109358.31
2023-06-14T11:23:16.329Z,109054.97
2023-06-14T11:25:43.135Z,108933.44
2023-06-14T11:28:09.811Z,109334.84
2023-06-14T11:30:36.437Z,109167.19
2023-06-14T11:33:03.126Z,108868.69
2023-06-14T11:35:29.892Z,109144.09
2023-06-14T11:37:57.397Z,109215.44
2023-06-14T11:40:27.991Z,109723.16
2023-06-14T11:43:03.876Z,109794.13
2023-06-14T11:45:31.592Z,109740.72
2023-06-14T11:47:59.934Z,109703.81
2023-06-14T11:50:27.364Z,109785.19
2023-06-14T11:52:59.079Z,109958.97
2023-06-14T11:55:26.029Z,109659.59
2023-06-14T11:57:55.329Z,109847.44
2023-06-14T12:00:26.082Z,109780.22
2023-06-14T12:02:56.607Z,109699.38
2023-06-14T12:05:23.809Z,109471.78
2023-06-14T12:07:51.235Z,109124.56
2023-06-14T12:10:17.885Z,109875.38
2023-06-14T12:12:44.415Z,110188.31
2023-06-14T12:15:11.448Z,110358.84
2023-06-14T12:17:38.875Z,110309.41
2023-06-14T12:20:13.406Z,110144.78
2023-06-14T12:22:40.060Z,109311.28
2023-06-14T12:25:06.729Z,109359.06
2023-06-14T12:27:33.313Z,109386.69
2023-06-14T12:30:01.196Z,109738.69
2023-06-14T12:32:28.141Z,109897.34
2023-06-14T12:34:55.177Z,109865.09
2023-06-14T12:37:21.715Z,110235.91
2023-06-14T12:39:48.868Z,110181.19
2023-06-14T12:42:15.441Z,110150.84
2023-06-14T12:44:42.301Z,109938.88
2023-06-14T12:47:08.889Z,109509.88
2023-06-14T12:49:35.519Z,109884.00
2023-06-14T12:52:02.080Z,110017.00
2023-06-14T12:54:39.210Z,109820.78
2023-06-14T12:57:07.663Z,110170.06
2023-06-14T12:59:34.310Z,110525.47
2023-06-14T13:02:13.518Z,110776.91
2023-06-14T13:04:40.458Z,110747.53
2023-06-14T13:07:06.996Z,110632.56
2023-06-14T13:09:33.661Z,110522.97
2023-06-14T13:12:00.191Z,111260.06
2023-06-14T13:14:26.725Z,111149.38
2023-06-14T13:16:53.565Z,110272.53
2023-06-14T13:19:20.286Z,110487.34
2023-06-14T13:21:46.934Z,111085.63
2023-06-14T13:24:13.628Z,110965.59
2023-06-14T13:26:40.535Z,110655.13
2023-06-14T13:29:07.234Z,111067.78
2023-06-14T13:31:33.844Z,110715.47
2023-06-14T13:34:00.407Z,110601.03
2023-06-14T13:36:27.018Z,110867.41
2023-06-14T13:38:53.646Z,111388.16
2023-06-14T13:41:20.240Z,110467.66
2023-06-14T13:43:46.718Z,110752.56
2023-06-14T13:46:13.426Z,110019.06
2023-06-14T13:48:39.943Z,110428.50
2023-06-14T13:51:06.492Z,110802.91
2023-06-14T13:53:32.977Z,111331.63
2023-06-14T13:55:59.926Z,111249.16
2023-06-14T13:58:26.852Z,111068.47
2023-06-14T14:00:53.416Z,111071.03
2023-06-14T14:03:19.996Z,111170.78
2023-06-14T14:05:46.691Z,111485.13
2023-06-14T14:08:13.334Z,110908.28
2023-06-14T14:10:39.816Z,111386.44
2023-06-14T14:13:06.413Z,110298.53
2023-06-14T14:15:32.899Z,110465.31
2023-06-14T14:17:59.496Z,111412.41
2023-06-14T14:20:26.061Z,111209.66
2023-06-14T14:22:52.599Z,110509.44
2023-06-14T14:25:19.091Z,110644.91
2023-06-14T14:27:45.789Z,110042.91
2023-06-14T14:30:12.831Z,110905.25
2023-06-14T14:32:39.733Z,111477.84
2023-06-14T14:35:07.085Z,111135.63
2023-06-14T14:37:33.527Z,111429.22
2023-06-14T14:40:00.214Z,111666.84
2023-06-14T14:42:26.674Z,111574.13
2023-06-14T14:44:53.539Z,111181.22
2023-06-14T14:47:20.176Z,111454.63
2023-06-14T14:49:46.903Z,111550.63
2023-06-14T14:52:23.425Z,111460.75
2023-06-14T14:54:51.069Z,110995.16
2023-06-14T14:57:17.613Z,110103.22
2023-06-14T14:59:44.137Z,111112.31
2023-06-14T15:02:10.806Z,111285.59
2023-06-14T15:04:37.431Z,110559.94
2023-06-14T15:07:04.291Z,110784.91
2023-06-14T15:09:30.918Z,109628.84
2023-06-14T15:11:57.565Z,109998.06
2023-06-14T15:14:24.092Z,110335.59
2023-06-14T15:16:50.636Z,111300.91
2023-06-14T15:19:19.264Z,111489.66
2023-06-14T15:21:45.793Z,111366.25
2023-06-14T15:24:12.606Z,111186.47
2023-06-14T15:26:39.208Z,110658.28
2023-06-14T15:29:05.740Z,111008.31
2023-06-14T15:31:32.433Z,111001.34
2023-06-14T15:33:59.114Z,111129.22
2023-06-14T15:36:26.123Z,111302.75
2023-06-14T15:38:53.230Z,110970.28
2023-06-14T15:41:19.868Z,110592.59
2023-06-14T15:43:46.493Z,110861.06
2023-06-14T15:46:13.050Z,110236.88
2023-06-14T15:48:39.626Z,110122.38
2023-06-14T15:51:06.302Z,110899.47
2023-06-14T15:53:32.827Z,110877.22
2023-06-14T15:55:59.586Z,111111.13
2023-06-14T15:58:26.102Z,110958.13
2023-06-14T16:00:52.768Z,110779.34
2023-06-14T16:03:19.542Z,110653.13
2023-06-14T16:05:46.392Z,110726.84
2023-06-14T16:08:19.008Z,109746.47
2023-06-14T16:10:52.529Z,110222.94
2023-06-14T16:13:19.284Z,110562.25
2023-06-14T16:15:45.797Z,110352.63
2023-06-14T16:18:12.504Z,110624.53
2023-06-14T16:20:39.184Z,110220.63
2023-06-14T16:23:05.781Z,110148.91
2023-06-14T16:25:32.461Z,110557.81
2023-06-14T16:27:58.985Z,110060.13
2023-06-14T16:30:27.499Z,109978.22
2023-06-14T16:32:54.058Z,109880.16
2023-06-14T16:35:20.680Z,109825.19
2023-06-14T16:37:47.290Z,109660.41
2023-06-14T16:40:14.081Z,109682.72
2023-06-14T16:42:40.957Z,108963.88
2023-06-14T16:45:08.209Z,109439.38
2023-06-14T16:47:34.798Z,109712.94
2023-06-14T16:50:01.444Z,109256.78
2023-06-14T16:52:28.172Z,109006.78
2023-06-14T16:54:54.744Z,109090.13
2023-06-14T16:57:21.404Z,108880.91
2023-06-14T16:59:48.045Z,108982.22
2023-06-14T17:02:14.708Z,108672.28
2023-06-14T17:04:41.475Z,108756.22
2023-06-14T17:07:08.096Z,108880.47
2023-06-14T17:09:34.688Z,109229.41
2023-06-14T17:12:01.422Z,108694.75
2023-06-14T17:14:28.142Z,108893.78
2023-06-14T17:16:54.849Z,108538.53
2023-06-14T17:19:21.408Z,108774.94
2023-06-14T17:21:47.964Z,108678.78
2023-06-14T17:24:24.953Z,108479.91
2023-06-14T17:26:52.153Z,108327.47
2023-06-14T17:29:18.685Z,108342.59
2023-06-14T17:31:45.384Z,108731.56
2023-06-14T17:34:12.320Z,108652.31
2023-06-14T17:36:38.817Z,108745.50
2023-06-14T17:39:05.335Z,108983.50
2023-06-14T17:41:33.430Z,108786.50
2023-06-14T17:44:00.477Z,108889.50
2023-06-14T17:46:27.045Z,108838.81
2023-06-14T17:48:53.648Z,108703.09
2023-06-14T17:51:20.392Z,108316.28
2023-06-14T17:53:47.176Z,108528.13
2023-06-14T17:56:13.982Z,108668.25
2023-06-14T17:58:40.498Z,108340.00
2023-06-14T18:01:07.018Z,108611.31
2023-06-14T18:03:33.717Z,108419.38
2023-06-14T18:06:00.389Z,108270.66
2023-06-14T18:08:27.310Z,108189.84
2023-06-14T18:10:53.959Z,108276.00
2023-06-14T18:13:20.586Z,108273.34
2023-06-14T18:15:47.281Z,108268.81
2023-06-14T18:18:14.065Z,108582.19
2023-06-14T18:20:40.607Z,108483.78
2023-06-14T18:23:08.034Z,108225.84
2023-06-14T18:25:36.042Z,108097.31
2023-06-14T18:28:02.561Z,108281.34
2023-06-14T18:30:29.119Z,108392.09
2023-06-14T18:32:55.744Z,108197.50
2023-06-14T18:35:22.358Z,108003.75
2023-06-14T18:37:48.888Z,108049.44
2023-06-14T18:40:15.878Z,107884.31
2023-06-14T18:42:42.968Z,108093.44
2023-06-14T18:45:10.234Z,108291.94
2023-06-14T18:47:37.017Z,108026.47
2023-06-14T18:50:03.735Z,108092.34
2023-06-14T18:52:30.345Z,108036.78
2023-06-14T18:54:56.901Z,107949.19
2023-06-14T18:57:23.463Z,107958.06
2023-06-14T18:59:49.965Z,107843.13
2023-06-14T19:02:16.692Z,107587.47
2023-06-14T19:04:43.391Z,107887.13
2023-06-14T19:07:10.031Z,107756.13
2023-06-14T19:09:36.610Z,107731.94
2023-06-14T19:12:03.439Z,107961.09
2023-06-14T19:14:29.939Z,107849.59
2023-06-14T19:16:56.503Z,107884.72
2023-06-14T19:19:23.105Z,107889.19
2023-06-14T19:21:49.833Z,107747.72
2023-06-14T19:24:16.397Z,107643.75
2023-06-14T19:26:43.802Z,107554.84
2023-06-14T19:29:10.472Z,107619.84
2023-06-14T19:31:37.373Z,107635.84
2023-06-14T19:34:03.999Z,107629.91
2023-06-14T19:36:30.675Z,107579.56
2023-06-14T19:38:57.138Z,107486.69
2023-06-14T19:41:23.884Z,107599.72
2023-06-14T19:43:50.602Z,107437.97
2023-06-14T19:46:17.160Z,107213.22
2023-06-14T19:48:43.837Z,107314.34
2023-06-14T19:51:10.540Z,107328.78
2023-06-14T19:53:37.213Z,107468.28
2023-06-14T19:56:03.832Z,107317.75
2023-06-14T19:58:30.363Z,107297.41
2023-06-14T20:00:57.046Z,107239.03
2023-06-14T20:03:23.616Z,107371.28
2023-06-14T20:05:50.248Z,107334.63
2023-06-14T20:08:17.025Z,107140.25
2023-06-14T20:10:43.529Z,107046.47
2023-06-14T20:13:10.189Z,106925.72
2023-06-14T20:15:36.710Z,106960.63
2023-06-14T20:18:03.365Z,106783.66
2023-06-14T20:20:30.094Z,107152.69
2023-06-14T20:22:56.624Z,107036.53
2023-06-14T20:25:23.220Z,106800.34
2023-06-14T20:27:49.726Z,106952.41
2023-06-14T20:30:16.589Z,106832.47
2023-06-14T20:32:43.452Z,106827.28
2023-06-14T20:35:10.092Z,106715.38
2023-06-14T20:37:36.821Z,106667.03
2023-06-14T20:40:03.647Z,106427.31
2023-06-14T20:42:31.149Z,106410.38
2023-06-14T20:44:58.531Z,106649.22
2023-06-14T20:47:25.807Z,106586.31
2023-06-14T20:49:52.640Z,106564.03
2023-06-14T20:52:19.172Z,106453.22
2023-06-14T20:54:45.787Z,106335.19
2023-06-14T20:57:12.629Z,106376.91
2023-06-14T20:59:40.302Z,106450.84
2023-06-14T21:02:08.132Z,106410.50
2023-06-14T21:04:34.592Z,106384.63
2023-06-14T21:07:01.510Z,106292.34
2023-06-14T21:09:28.027Z,106349.47
2023-06-14T21:11:54.516Z,106447.88
2023-06-14T21:14:21.094Z,106238.34
2023-06-14T21:16:47.680Z,106417.38
2023-06-14T21:19:14.336Z,106505.34
2023-06-14T21:21:40.969Z,106311.69
2023-06-14T21:24:07.557Z,106555.09
2023-06-14T21:26:34.246Z,106389.22
2023-06-14T21:29:01.636Z,106264.81
2023-06-14T21:31:28.206Z,106287.47
2023-06-14T21:33:54.817Z,106314.19
2023-06-14T21:36:21.350Z,106388.38
2023-06-14T21:38:47.892Z,106229.69
2023-06-14T21:41:14.671Z,106124.22
2023-06-14T21:43:41.259Z,106213.03
2023-06-14T21:46:07.883Z,106068.59
2023-06-14T21:48:34.471Z,106130.25
2023-06-14T21:51:00.935Z,106008.03
2023-06-14T21:53:27.470Z,105761.84
2023-06-14T21:55:54.228Z,106119.31
2023-06-14T21:58:20.932Z,105795.47
2023-06-14T22:00:47.525Z,106028.56
2023-06-14T22:03:14.277Z,106114.69
2023-06-14T22:05:40.872Z,106170.06
2023-06-14T22:08:07.399Z,105991.25
2023-06-14T22:10:33.863Z,105935.59
2023-06-14T22:13:00.378Z,106010.41
2023-06-14T22:15:27.111Z,105815.50
2023-06-14T22:17:54.213Z,105540.72
2023-06-14T22:20:20.777Z,105709.53
2023-06-14T22:22:47.410Z,105535.16
2023-06-14T22:25:13.878Z,105437.69
2023-06-14T22:27:40.701Z,105437.16
2023-06-14T22:30:07.957Z,105475.34
2023-06-14T22:32:34.564Z,105720.50
2023-06-14T22:35:01.177Z,105852.63
2023-06-14T22:37:27.665Z,105589.47
2023-06-14T22:39:54.217Z,105659.47
2023-06-14T22:42:20.731Z,105386.38
2023-06-14T22:44:47.298Z,105446.78
2023-06-14T22:47:13.809Z,105484.53
2023-06-14T22:49:40.301Z,105462.78
2023-06-14T22:52:07.551Z,105530.88
2023-06-14T22:54:34.057Z,105313.59
2023-06-14T22:57:00.666Z,105069.78
2023-06-14T22:59:27.141Z,105164.03
2023-06-14T23:01:54.936Z,105240.31
2023-06-14T23:04:21.573Z,105247.63
2023-06-14T23:06:48.254Z,105203.66
2023-06-14T23:09:14.830Z,104869.50
2023-06-14T23:11:41.319Z,104877.59
2023-06-14T23:14:07.770Z,105081.28
2023-06-14T23:16:35.420Z,104938.09
2023-06-14T23:19:02.136Z,105016.13
2023-06-14T23:21:28.681Z,104892.88
2023-06-14T23:23:55.362Z,104860.56
2023-06-14T23:26:22.382Z,104682.50
2023-06-14T23:28:49.099Z,104705.22
2023-06-14T23:31:15.887Z,104543.53
2023-06-14T23:33:42.503Z,104729.22
2023-06-14T23:36:09.030Z,105010.53
2023-06-14T23:38:35.985Z,104950.34
2023-06-14T23:41:02.576Z,104962.13
2023-06-14T23:43:31.264Z,104824.47
2023-06-14T23:45:57.824Z,104913.06
2023-06-14T23:48:24.971Z,104727.22
2023-06-14T23:50:51.447Z,104774.59
2023-06-14T23:53:18.074Z,104717.59
2023-06-14T23:55:44.579Z,104749.19
2023-06-14T23:58:11.299Z,104914.72
